Vaaraa aiheuttavia sääilmiöitä ei ole odotettavissa.    Ei varoituksia

Webkamera Lisätietoa Webcam


Yksityisiä sääasemia lähellä:

Sääasema Juupajoki

Sääasema Orivesi

Sääasema Muurame

Sääasema Jyväskylä

Sääasema Vihtavuori


Löydät sääaseman tiedot myös:

Finland Weather Exchange

European Weather Network

Weather Underground

AWEKAS

Windy.com



Säätiedot lähimmiltä METAR asemilta

   
EFHA - Halli (Fin-Afb), Finland
Etäisyys asemalta: Kaakko 25 km
Päivitetty: 24.05.2019 19:50
Pilvistä  
Pilvistä  
   Tuuli: Kaakko 3.1 m/s
Tuuli: Kaakko 3.1 m/s
Lämpötila: 11°C
Kastepiste: 5°C
Kosteus: 67%
Ilmanpaine: 1008 hPa
Pilvisyys: Pilvistä
Näkyvyys: Enemmän kuin 10 km
Pilvitiedot: Pilvistä 1158 m
EFHA 241650Z AUTO 14006KT 9999 OVC038 11/05 Q1008
EFJY - Jyvaskyla (Mil/Civ), Finland
Etäisyys asemalta: Koillinen 75 km
Päivitetty: 24.05.2019 19:50
Pilvistä  
Pilvistä  
   Tuuli: Itä 3.6 m/s
Tuuli: Itä 3.6 m/s
Lämpötila: 9°C
Tuulen hyytävyys: 7°C
Kastepiste: 5°C
Kosteus: 76%
Ilmanpaine: 1009 hPa
Pilvisyys: Pilvistä
Näkyvyys: Enemmän kuin 10 km
Pilvitiedot: Pilvistä 1097 m
EFJY 241650Z AUTO 08007KT 9999 OVC036 09/05 Q1009
EFTP - Tampere/Pirkkala, Finland
Etäisyys asemalta: Lounas 81 km
Päivitetty: 24.05.2019 19:50
Pilvistä  
Pilvistä  
   Tuuli: Eteläkaakko 3.1 m/s
Tuuli: Eteläkaakko 3.1 m/s
Lämpötila: 10°C
Tuulen hyytävyys: 8°C
Kastepiste: 7°C
Kosteus: 82%
Ilmanpaine: 1009 hPa
Pilvisyys: Pilvistä
Näkyvyys: Enemmän kuin 10 km
Pilvitiedot: Pilvistä 457 m
EFTP 241650Z AUTO 16006KT 9999 OVC015 10/07 Q1009
EFSI - Seinajoki-Ilmajoki, Finland
Etäisyys asemalta: Luode 114 km
Päivitetty: 24.05.2019 19:50
Selkeää  
Selkeää  
   Tuuli: Eteläkaakko 2.6 m/s
Tuuli: Eteläkaakko 2.6 m/s
Lämpötila: 13°C
Kastepiste: 8°C
Kosteus: 72%
Ilmanpaine: 1007 hPa
Näkyvyys: Enemmän kuin 10 km
Pilvitiedot: Selkeää
EFSI 241650Z AUTO 16005KT 120V210 CAVOK 13/08 Q1007
EFMI - Mikkeli, Finland
Etäisyys asemalta: Itäkaakko 147 km
Päivitetty: 24.05.2019 19:50
Selkeää  
Selkeää  
   Tuuli: Kaakko 3.1 m/s
Tuuli: Kaakko 3.1 m/s
Lämpötila: 9°C
Tuulen hyytävyys: 7°C
Kastepiste: 3°C
Kosteus: 66%
Ilmanpaine: 1010 hPa
Näkyvyys: Enemmän kuin 10 km
Pilvitiedot: Selkeää
EFMI 241650Z AUTO 14006KT 100V180 CAVOK 09/03 Q1010
EFPO - Pori (Mil/Civ), Finland
Etäisyys asemalta: Länsilounas 154 km
Päivitetty: 24.05.2019 19:50
Melkein pilvistä  
Melkein pilvistä  
   Tuuli: Itä 4.6 m/s
Tuuli: Itä 4.6 m/s
Lämpötila: 12°C
Kastepiste: 9°C
Kosteus: 82%
Ilmanpaine: 1007 hPa
Pilvisyys: Melkein pilvistä
Näkyvyys: Enemmän kuin 10 km
Pilvitiedot: Melkein pilvistä 457 m,
Melkein pilvistä 640 m
EFPO 241650Z AUTO 10009KT 9999 BKN015/// BKN021/// 12/09 Q1007
EFUT - Utti (Fin-Afb), Finland
Etäisyys asemalta: Kaakko 180 km
Päivitetty: 24.05.2019 19:50
Pilvistä  
Pilvistä  
   Tuuli: Itäkaakko 3.6 m/s
Tuuli: Itäkaakko 3.6 m/s
Lämpötila: 10°C
Tuulen hyytävyys: 8°C
Kastepiste: 5°C
Kosteus: 71%
Ilmanpaine: 1009 hPa
Pilvisyys: Pilvistä
Näkyvyys: Enemmän kuin 10 km
Pilvitiedot: Pilvistä 1128 m
EFUT 241650Z AUTO 11007KT 9999 OVC037 10/05 Q1009
EFVA - Vaasa, Finland
Etäisyys asemalta: Luode 180 km
Päivitetty: 24.05.2019 19:50
Melkein pilvistä  
Melkein pilvistä  
   Tuuli: Luode 2.1 m/s
Tuuli: Luode 2.1 m/s
Lämpötila: 9°C
Tuulen hyytävyys: 8°C
Kastepiste: 7°C
Kosteus: 87%
Ilmanpaine: 1007 hPa
Pilvisyys: Melkein pilvistä
Näkyvyys: Enemmän kuin 10 km
Pilvitiedot: Vähäistä pilvisyyttä 305 m,
Melkein pilvistä 2835 m
EFVA 241650Z AUTO 31004KT 280V350 9999 FEW010/// BKN093/// 09/07 Q1007
EFHK - Helsinki/Vantaa, Finland
Etäisyys asemalta: Etelä 191 km
Päivitetty: 24.05.2019 19:50
Melkein pilvistä  
Melkein pilvistä  
   Tuuli: Itä 3.1 m/s
Tuuli: Itä 3.1 m/s
Lämpötila: 10°C
Tuulen hyytävyys: 8°C
Kastepiste: 7°C
Kosteus: 82%
Ilmanpaine: 1009 hPa
Pilvisyys: Melkein pilvistä
Näkyvyys: Enemmän kuin 10 km
Pilvitiedot: Melkein pilvistä 396 m
EFHK 241650Z 08006KT 040V120 9999 BKN013 10/07 Q1009 NOSIG

Alkuperäinen skripti  Saratoga-weather.org Sovitettu myös templatelle  Weerstation Leuven

Laitteet joita käytämme:

Sääasema
Davis VP2

Sääasemaohjelma
Cumulus

Sääaseman palvelin
HP ProBook 6460b

Palveluntarjoaja
Radicenter

Davis VP2

Cumulus

HP ProBook 6460b

Radicenter




Flag Counter Cumulus Top Weather Sites